Station: Robe Airport

  Atmospheric Gas Attenuation - ITU Rec 676-11   --------------- db/100km ---------------
Date Time Temp RH % AH g/m3 Dew Point Wind Direction Speed kph Gust kph Barometer mB Rainfall Since 9am 24GHz 47GHz 76GHz 122GHz 134GHz 241GHz
22 13:50 34.5 26 10.02 12.2 22 26 1013.1 0 21.5 22.5 35.3 92.9 90.6 313.7
22 13:40 34.5 25 9.63 11.6 17 20 1013.1 0 20.7 22.0 34.1 89.6 86.6 299.4
22 13:30 34.6 25 9.68 11.7 19 30 1014.6 0 20.8 22.1 34.3 90.0 87.1 301.2
22 13:20 34.1 24 9.06 11.2 11 24 1013.1 0 19.6 21.3 32.5 85.2 81.1 280.2
22 13:10 35 25 9.89 12 15 17 1013.1 0 21.2 22.2 34.7 91.2 88.7 307.0
22 13:00 35 26 10.28 12.6 24 41 1015 0 22.0 22.8 36.0 94.7 92.9 321.8
22 12:50 35.3 26 10.45 13.4 24 32 1013.1 0 22.4 22.9 36.4 95.7 94.2 326.4
22 12:40 35 27 10.68 13.7 30 37 1013.1 0 22.9 23.2 37.2 98.0 97.0 336.2
22 12:30 34.9 28 11.02 13.7 26 35 1015.4 0 23.6 23.8 38.5 101.3 101.0 350.0
22 12:20 34.8 30 11.74 15.1 28 33 1013.1 0 25.0 24.7 40.8 107.6 108.8 377.3
22 12:10 34.4 31 11.88 15.3 20 24 1013.1 0 25.4 25.0 41.5 109.4 110.9 384.6
22 12:00 34.2 31 11.76 15.1 26 35 1015.8 0 25.1 25.0 41.3 108.8 110.0 381.6
22 11:50 34.5 32 12.33 15.4 26 30 1013.1 0 26.3 25.6 43.0 113.3 115.8 401.7
22 11:40 34.1 32 12.08 15.5 22 28 1013.1 0 25.8 25.4 42.3 111.6 113.5 393.8
22 11:30 34 33 12.39 15.5 26 37 1016 0 26.4 25.9 43.6 114.9 117.4 407.5
22 11:20 33.7 32 11.82 14.7 32 39 1013.1 0 25.3 25.1 41.7 109.7 111.2 385.5
22 11:10 32.8 33 11.63 14.4 24 32 1013.1 0 24.9 25.1 41.5 109.2 110.3 382.2
22 11:00 32.9 32 11.34 14 26 43 1016.3 0 24.3 24.8 40.6 106.7 107.1 371.3
22 10:50 32.4 31 10.69 13.5 24 30 1013.1 0 23.0 23.9 38.5 101.2 100.3 347.3
22 10:40 31.9 31 10.41 13.1 30 33 1013.1 0 22.5 23.6 37.8 99.3 97.8 338.6
22 10:30 31.3 31 10.08 12.2 26 39 1016.7 0 21.8 23.5 37.1 97.4 95.2 329.3
22 10:20 30.9 32 10.19 12.7 20 26 1013.1 0 22.1 23.6 37.5 98.5 96.6 334.2
22 10:10 31.3 31 10.08 12.6 22 28 1013.1 0 21.8 23.4 36.9 97.1 94.9 328.3
22 10:00 30.1 33 10.06 12.1 28 37 1016.9 0 21.8 23.8 37.6 98.7 96.4 333.4
22 09:50 29.8 33 9.9 11.8 28 33 1013.1 0 21.5 23.5 37.0 97.2 94.7 327.3
22 09:40 29.6 33 9.79 12 28 32 1013.1 0 21.3 23.4 36.7 96.5 93.7 323.8
22 09:30 28.8 35 9.95 11.8 26 35 1017.2 0 21.7 23.9 37.8 99.3 96.7 334.4
22 09:20 28.6 35 9.84 12 20 24 1013.1 0 21.5 23.7 37.3 98.1 95.4 329.8
22 09:10 27.7 35 9.36 11.2 32 35 1013.1 0 20.5 23.3 36.1 94.8 91.0 314.4
22 09:00 27.3 36 9.42 10.9 28 37 1017.4 0 20.7 23.6 36.6 96.2 92.5 319.4
22 08:50 26.7 37 9.37 10.8 33 39 1013.1 0 20.6 23.5 36.6 96.0 92.3 318.6
22 08:40 27.2 36 9.37 11.2 24 30 1013.1 0 20.6 23.4 36.3 95.4 91.7 316.7
22 08:30 26.2 38 9.36 10.8 22 30 1017.5 0 20.6 23.8 36.9 96.9 93.1 321.3
22 08:20 25.5 39 9.23 10.5 24 28 1013.1 0 20.4 23.6 36.6 96.1 92.1 317.7
22 08:10 24.8 40 9.1 10.3 24 33 1013.1 0 20.1 23.6 36.5 95.7 91.4 315.2
22 08:00 24.2 40 8.8 9.8 20 28 1017.6 0 19.5 23.5 35.9 94.0 88.9 306.4
22 07:50 23.4 41 8.62 9.7 20 24 1013.1 0 19.2 23.3 35.4 92.8 87.3 301.0
22 07:40 22.6 43 8.64 9.4 15 17 1013.1 0 19.3 23.5 35.8 93.9 88.5 304.8
22 07:30 22 44 8.54 9.2 17 24 1017.5 0 19.1 23.7 35.9 94.1 88.3 304.0
22 07:20 21.4 44 8.25 8.9 17 20 1013.1 0 18.5 23.3 34.9 91.6 85.2 293.1
22 07:10 20.9 46 8.38 8.8 17 19 1013.1 0 18.8 23.6 35.6 93.4 87.3 300.4
22 07:00 20.6 46 8.23 8.6 15 19 1017.3 0 18.5 23.6 35.4 92.7 86.1 296.2
22 06:50 20.1 47 8.17 8.4 13 19 1013.1 0 18.4 23.5 35.2 92.3 85.6 294.5
22 06:40 19.9 46 7.9 8.2 13 17 1013.1 0 17.8 23.2 34.3 89.9 82.6 284.0
22 06:30 19.8 47 8.03 8.2 13 19 1017.2 0 18.1 23.5 35.0 91.7 84.6 290.8
22 06:20 19.7 46 7.81 8 13 17 1013.1 0 17.6 23.1 34.1 89.3 81.8 281.0
22 06:10 19.5 47 7.89 7.9 13 15 1013.1 0 17.8 23.2 34.5 90.3 82.9 285.0
22 06:00 19.4 48 8.01 8.1 13 17 1017.1 0 18.1 23.6 35.1 91.9 84.7 291.3
22 05:50 19 49 7.98 8 11 13 1013.1 0 18.0 23.5 35.0 91.7 84.5 290.5
22 05:40 18.7 48 7.68 7.7 9 13 1013.1 0 17.4 23.1 34.0 89.1 81.2 279.0
22 05:30 18.9 48 7.78 7.7 11 17 1017 0 17.6 23.4 34.5 90.2 82.5 283.4
22 05:20 19.4 47 7.84 7.8 11 13 1013.1 0 17.7 23.2 34.3 89.9 82.4 283.3
22 05:10 19.9 45 7.73 7.6 13 17 1013.1 0 17.5 22.9 33.7 88.3 80.6 277.0
22 04:50 20.4 43 7.61 7.4 9 11 1013.1 0 17.2 22.6 33.1 86.6 78.7 270.3
22 04:40 20.6 42 7.52 7.2 11 13 1013.1 0 17.0 22.4 32.7 85.6 77.5 266.0
22 04:30 21 41 7.51 7.3 11 15 1016.9 0 17.0 22.5 32.6 85.4 77.2 265.1
22 04:20 21.2 39 7.23 7 13 15 1013.1 0 16.4 21.9 31.4 82.2 73.6 252.4
22 04:10 21.1 39 7.19 6.9 11 15 1013.1 0 16.3 21.9 31.3 82.0 73.2 251.1
22 04:00 21.5 39 7.35 7 11 17 1017 0 16.6 22.1 31.9 83.4 74.9 257.1
22 03:50 21.3 40 7.46 7.1 11 15 1013.1 0 16.8 22.2 32.2 84.3 76.1 261.3
22 03:40 21.6 39 7.4 7 13 15 1013.1 0 16.7 22.0 31.9 83.4 75.1 258.0
22 03:30 21.7 39 7.44 7.2 11 17 1017.1 0 16.8 22.2 32.1 84.0 75.8 260.1
22 03:20 21.9 39 7.53 7.3 11 15 1013.1 0 17.0 22.1 32.2 84.3 76.3 262.2
22 03:10 21.9 39 7.53 7.3 11 13 1013.1 0 17.0 22.1 32.2 84.3 76.3 262.2
22 03:00 21.9 38 7.33 7 11 15 1017.1 0 16.5 22.0 31.7 82.8 74.3 255.1
22 02:50 22 38 7.37 7 11 13 1013.1 0 16.6 21.9 31.6 82.7 74.4 255.5
22 02:40 22.1 38 7.42 7.1 11 15 1013.1 0 16.7 21.9 31.8 83.1 74.9 257.2
22 02:30 22.3 37 7.31 6.9 15 20 1017.2 0 16.5 21.9 31.5 82.2 73.7 253.1
22 02:20 23 35 7.19 6.7 13 17 1013.1 0 16.2 21.4 30.6 80.1 71.5 245.4
22 02:10 23.2 35 7.28 6.9 13 19 1013.1 0 16.4 21.5 30.9 80.7 72.3 248.3
22 02:00 23.2 35 7.28 6.9 17 24 1017.4 0 16.4 21.6 31.0 81.1 72.6 249.2
22 01:50 23.4 34 7.15 7 15 17 1013.1 0 16.1 21.3 30.4 79.4 70.7 242.7
22 01:40 23.4 34 7.15 7 15 19 1013.1 0 16.1 21.3 30.4 79.4 70.7 242.7
22 01:30 23 35 7.19 6.7 15 20 1017.6 0 16.2 21.6 30.8 80.5 71.8 246.3
22 01:20 23.3 35 7.32 7 17 20 1013.1 0 16.5 21.5 31.0 81.0 72.7 249.6
22 01:10 23.2 35 7.28 6.9 15 17 1013.1 0 16.4 21.5 30.9 80.7 72.3 248.3
22 01:00 23.5 35 7.4 7.2 15 19 1017.9 0 16.6 21.7 31.3 81.9 73.7 253.1
22 00:50 23.2 35 7.28 6.9 15 17 1013.1 0 16.4 21.5 30.9 80.7 72.3 248.3
22 00:40 23 36 7.4 7.1 11 13 1013.1 0 16.6 21.7 31.3 82.0 73.9 253.6
22 00:30 22.7 37 7.48 7.3 11 15 1018.2 0 16.8 22.0 31.9 83.5 75.4 258.8
22 00:20 22.4 38 7.55 7.4 11 11 1013.1 0 17.0 22.0 32.1 84.0 76.1 261.4
22 00:10 22.4 38 7.55 7.4 11 13 1013.1 0 17.0 22.0 32.1 84.0 76.1 261.4
22 00:00 22.6 38 7.63 7.6 7 9 1018.3 0 17.1 22.3 32.5 85.0 77.2 265.1
21 23:50 22.8 38 7.72 7.7 6 7 1013.1 0 17.3 22.2 32.5 85.1 77.6 266.9
21 23:40 23.1 37 7.65 7.6 9 9 1013.1 0 17.2 22.0 32.2 84.2 76.6 263.1
21 23:30 23.8 36 7.74 7.8 9 13 1018.3 0 17.3 22.2 32.4 84.7 77.3 265.6
21 23:20 24.4 35 7.79 7.9 11 13 1013.1 0 17.4 21.9 32.1 84.1 76.9 264.4
21 23:10 23.8 36 7.74 7.8 9 11 1013.1 0 17.3 22.0 32.2 84.3 76.9 264.4
21 23:00 23.7 36 7.7 7.8 11 13 1018.3 0 17.2 22.1 32.3 84.5 76.9 264.3
21 22:50 23.7 37 7.91 8.1 9 9 1013.1 0 17.7 22.2 32.8 85.9 78.9 271.4
21 22:40 23.5 35 7.4 7.5 6 6 1013.1 0 16.6 21.6 31.2 81.5 73.4 252.1
21 22:30 24.3 35 7.74 7.9 9 13 1018.4 0 17.3 22.0 32.2 84.2 76.8 264.0
21 22:20 24.2 36 7.92 8.2 9 11 1013.1 0 17.7 22.1 32.6 85.5 78.5 270.2
21 22:10 24.1 36 7.88 8.1 7 9 1013.1 0 17.6 22.1 32.5 85.2 78.2 268.9
21 22:00 24 36 7.83 8 7 9 1018.2 0 17.5 22.2 32.6 85.3 78.1 268.4
21 21:50 23.6 35 7.44 7.6 6 7 1013.1 0 16.7 21.6 31.3 81.8 73.8 253.3
21 21:40 23.8 37 7.96 8.2 4 4 1013.1 0 17.8 22.3 32.9 86.3 79.4 273.1
21 21:30 25.6 33 7.86 8.1 6 7 1017.9 0 17.5 21.9 32.1 83.9 76.9 264.4
21 21:20 26.2 32 7.88 8.6 6 7 1013.1 0 17.5 21.6 31.7 83.1 76.2 262.2
21 21:10 27.1 31 8.02 8.5 7 9 1013.1 0 17.8 21.6 31.8 83.4 76.9 264.6

Last Refresh: 22-Jan-2022 13:54:25

Bureau of Meteorology